Aviation Digital Data Service (ADDS)

Output produced by METARs form (1411 UTC 16 August 2022)
found at http://aviationweather.gov/metar/data/
 
METAR text: EDDK 161350Z AUTO 08004KT 020V150 CAVOK 30/12 Q1009 NOSIG
Conditions at: EDDK (KOELN/BONN , DE) observed 1350 UTC 16 August 2022
Temperature: 30.0°C (86°F)
Dewpoint: 12.0°C (54°F) [RH = 33%]
Pressure (altimeter): 29.79 inches Hg (1009.0 mb)
Winds: from the E (80 degrees) at 5 MPH (4 knots; 2.1 m/s)
Visibility: 6 or more miles (10+ km)
Ceiling: ceiling and visibility are OK
Clouds: unknown
Weather: no significant weather observed at this time

METAR text: EDDK 161320Z AUTO VRB03KT CAVOK 30/12 Q1009 NOSIG
Conditions at: EDDK (KOELN/BONN , DE) observed 1320 UTC 16 August 2022
Temperature: 30.0°C (86°F)
Dewpoint: 12.0°C (54°F) [RH = 33%]
Pressure (altimeter): 29.79 inches Hg (1009.0 mb)
Winds: variable direction winds at 3 MPH (3 knots; 1.5 m/s)
Visibility: 6 or more miles (10+ km)
Ceiling: ceiling and visibility are OK
Clouds: unknown
Weather: no significant weather observed at this time

Forecast for: EDDK (KOELN/BONN , DE)
Text: TAF EDDK 161100Z 1612/1718 28005KT 9999 SCT030
Forecast period: 1200 to 1500 UTC 16 August 2022
Forecast type: FROM: standard forecast or significant change
Winds: from the W (280 degrees) at 6 MPH (5 knots; 2.6 m/s)
Visibility: 6 or more miles (10+ km)
Ceiling: at least 12,000 feet AGL
Clouds: scattered clouds at 3000 feet AGL
Weather: no significant weather forecast for this period
Text: BECMG 1615/1618 VRB02KT
Forecast period: 1500 UTC 16 August 2022 to 1800 UTC 17 August 2022
Forecast type: BECOMING: Conditions expected to become as follows by 1800 UTC 16 August 2022
Winds: variable direction winds at 2 MPH (2 knots; 1.0 m/s)
Visibility: 6 or more miles (10+ km)
Ceiling: at least 12,000 feet AGL
Clouds: scattered clouds at 3000 feet AGL
Weather: no significant weather forecast for this period
Text: PROB40
Forecast period: 0700 to 1700 UTC 17 August 2022
Forecast type: TEMPORARY: The following changes expected for less than half the time period
Visibility: missing
Ceiling: 4000 feet AGL
Clouds: broken clouds at 4000 feet AGL
Weather: SHRA  (rain showers)
Text: TEMPO 1707/1717 SHRA BKN040TCU
Forecast period: 1500 to 1700 UTC 17 August 2022
Forecast type: TEMPORARY: The following changes expected for less than half the time period
Winds: from the SE (140 degrees) at 14 MPH (12 knots; 6.2 m/s)
Visibility: missing
Ceiling: 4000 feet AGL
Clouds: broken clouds at 4000 feet AGL
Weather: TSRA  (rain associated with thunderstorm(s))